Time;durP1;ratioP1;P1;durP2;ratioP2;P2;SDS_P1;SDS_P2;PMS_P1;PMS_P2;Temp;Humidity;BMP_temperature;BMP_pressure;BME280_temperature;BME280_humidity;BME280_pressure;Samples;Min_cycle;Max_cycle;Signal;HPM_P1;HPM_P2
2023/09/03 00:00:01;;;;;;;;;;;;;;;;;;4961532;28;20425;-66
2023/09/03 00:02:27;;;;;;;;;;;;;;;;;;4947189;28;19922;-65
2023/09/03 00:04:52;;;;;;;;;;;;;;;;;;4963401;28;19922;-66
2023/09/03 00:07:17;;;;;;;;;;;;;;;;;;4964271;28;19918;-66
2023/09/03 00:09:45;;;;;;;;;;;;;;;;;;4947207;28;19922;-66
2023/09/03 00:12:10;;;;;;;;;;;;;;;;;;4946535;28;19964;-66
2023/09/03 00:14:35;;;;;;;;;;;;;;;;;;4948344;28;20396;-66
2023/09/03 00:17:00;;;;;;;;;;;;;;;;;;4942910;28;19926;-66
2023/09/03 00:19:26;;;;;;;;;;;;;;;;;;4947885;28;19926;-65
2023/09/03 00:21:51;;;;;;;;;;;;;;;;;;4941930;28;22273;-66
2023/09/03 00:24:19;;;;;;;;;;;;;;;;;;4946312;28;19968;-66
2023/09/03 00:26:47;;;;;;;;;;;;;;;;;;4949098;28;19993;-66
2023/09/03 00:29:15;;;;;;;;;;;;;;;;;;4928838;28;20447;-66
2023/09/03 00:31:43;;;;;;;;;;;;;;;;;;4948656;28;19926;-66
2023/09/03 00:34:12;;;;;;;;;;;;;;;;;;4947634;28;19918;-65
2023/09/03 00:36:37;;;;;;;;;;;;;;;;;;4959502;28;21760;-66
2023/09/03 00:39:02;;;;;;;;;;;;;;;;;;4942862;28;19922;-66
2023/09/03 00:41:29;;;;;;;;;;;;;;;;;;4960773;28;19923;-65
2023/09/03 00:43:57;;;;;;;;;;;;;;;;;;4961582;28;20505;-65
2023/09/03 00:46:22;;;;;;;;;;;;;;;;;;4961221;28;19929;-65
2023/09/03 00:48:47;;;;;;;;;;;;;;;;;;4962154;28;19925;-65
2023/09/03 00:51:13;;;;;;;;;;;;;;;;;;4948345;28;19941;-66
2023/09/03 00:53:38;;;;;;;;;;;;;;;;;;4946296;28;19930;-65
2023/09/03 00:56:03;;;;;;;;;;;;;;;;;;4962778;28;19945;-66
2023/09/03 00:58:30;;;;;;;;;;;;;;;;;;4946999;28;20984;-66
2023/09/03 01:00:57;;;;;;;;;;;;;;;;;;4961285;28;20003;-65
2023/09/03 01:03:26;;;;;;;;;;;;;;;;;;4949047;28;19922;-66
2023/09/03 01:05:51;;;;;;;;;;;;;;;;;;4962460;28;19929;-65
2023/09/03 01:08:19;;;;;;;;;;;;;;;;;;4946118;28;20470;-65
2023/09/03 01:10:44;;;;;;;;;;;;;;;;;;4947634;28;19922;-66
2023/09/03 01:13:13;;;;;;;;;;;;;;;;;;4945649;28;19969;-66
2023/09/03 01:15:41;;;;;;;;;;;;;;;;;;4948647;28;20522;-66
2023/09/03 01:18:06;;;;;;;;;;;;;;;;;;4982711;28;19984;-66
2023/09/03 01:20:34;;;;;;;;;;;;;;;;;;4981526;28;19930;-65
2023/09/03 01:22:59;;;;;;;;;;;;;;;;;;4981631;28;20593;-68
2023/09/03 01:25:24;;;;;;;;;;;;;;;;;;4981568;28;19929;-67
2023/09/03 01:27:50;;;;;;;;;;;;;;;;;;4946394;28;20493;-67
2023/09/03 01:30:15;;;;;;;;;;;;;;;;;;4945082;28;20845;-67
2023/09/03 01:32:41;;;;;;;;;;;;;;;;;;4965273;28;19961;-67
2023/09/03 01:35:06;;;;;;;;;;;;;;;;;;4964382;28;19991;-66
2023/09/03 01:37:34;;;;;;;;;;;;;;;;;;4965629;28;19992;-66
2023/09/03 01:39:59;;;;;;;;;;;;;;;;;;4966260;28;20527;-66
2023/09/03 01:42:27;;;;;;;;;;;;;;;;;;4965046;28;19929;-67
2023/09/03 01:44:53;;;;;;;;;;;;;;;;;;4965979;28;19956;-66
2023/09/03 01:47:22;;;;;;;;;;;;;;;;;;4980850;28;19922;-66
2023/09/03 01:49:50;;;;;;;;;;;;;;;;;;4965734;28;20556;-66
2023/09/03 01:52:16;;;;;;;;;;;;;;;;;;4966211;28;19917;-66
2023/09/03 01:54:41;;;;;;;;;;;;;;;;;;4980652;28;19928;-66
2023/09/03 01:57:06;;;;;;;;;;;;;;;;;;4980943;28;19918;-66
2023/09/03 01:59:32;;;;;;;;;;;;;;;;;;4966398;28;19929;-66
2023/09/03 02:01:58;;;;;;;;;;;;;;;;;;4965490;28;19918;-66
2023/09/03 02:04:25;;;;;;;;;;;;;;;;;;4980037;28;19918;-66
2023/09/03 02:06:51;;;;;;;;;;;;;;;;;;4962615;28;20830;-65
2023/09/03 02:09:16;;;;;;;;;;;;;;;;;;4980965;28;19964;-66
2023/09/03 02:11:41;;;;;;;;;;;;;;;;;;4980686;28;20297;-66
2023/09/03 02:14:09;;;;;;;;;;;;;;;;;;4966255;28;19949;-66
2023/09/03 02:16:34;;;;;;;;;;;;;;;;;;4964125;28;20024;-67
2023/09/03 02:19:02;;;;;;;;;;;;;;;;;;4964890;28;20004;-67
2023/09/03 02:21:27;;;;;;;;;;;;;;;;;;4978335;28;20042;-67
2023/09/03 02:23:53;;;;;;;;;;;;;;;;;;4979494;28;19921;-67
2023/09/03 02:26:18;;;;;;;;;;;;;;;;;;4964268;28;19922;-67
2023/09/03 02:28:46;;;;;;;;;;;;;;;;;;4964793;28;20526;-66
2023/09/03 02:31:12;;;;;;;;;;;;;;;;;;4963585;28;19933;-66
2023/09/03 02:33:37;;;;;;;;;;;;;;;;;;4944902;28;19930;-65
2023/09/03 02:36:05;;;;;;;;;;;;;;;;;;4965014;28;20021;-66
2023/09/03 02:38:33;;;;;;;;;;;;;;;;;;4979666;28;20040;-67
2023/09/03 02:40:59;;;;;;;;;;;;;;;;;;4963705;28;19922;-67
2023/09/03 02:43:24;;;;;;;;;;;;;;;;;;4980410;28;19964;-66
2023/09/03 02:45:52;;;;;;;;;;;;;;;;;;4965076;28;19933;-66
2023/09/03 02:48:20;;;;;;;;;;;;;;;;;;4980310;28;20049;-66
2023/09/03 02:50:47;;;;;;;;;;;;;;;;;;4944965;28;20805;-68
2023/09/03 02:53:15;;;;;;;;;;;;;;;;;;4980967;28;19961;-68
2023/09/03 02:55:40;;;;;;;;;;;;;;;;;;4947901;28;20878;-68
2023/09/03 02:58:05;;;;;;;;;;;;;;;;;;4945099;28;19965;-67
2023/09/03 03:00:31;;;;;;;;;;;;;;;;;;4961393;28;19926;-68
2023/09/03 03:02:59;;;;;;;;;;;;;;;;;;4945226;28;20009;-68
2023/09/03 03:05:27;;;;;;;;;;;;;;;;;;4979679;28;19933;-68
2023/09/03 03:07:55;;;;;;;;;;;;;;;;;;4944752;28;20289;-67
2023/09/03 03:10:21;;;;;;;;;;;;;;;;;;4944329;28;20032;-68
2023/09/03 03:12:51;;;;;;;;;;;;;;;;;;4976591;28;19988;-66
2023/09/03 03:15:22;;;;;;;;;;;;;;;;;;4979751;28;19951;-66
2023/09/03 03:17:47;;;;;;;;;;;;;;;;;;4980163;28;19937;-67
2023/09/03 03:20:15;;;;;;;;;;;;;;;;;;4977963;28;19937;-67
2023/09/03 03:22:41;;;;;;;;;;;;;;;;;;4981759;28;19961;-67
2023/09/03 03:25:06;;;;;;;;;;;;;;;;;;4965251;28;19922;-66
2023/09/03 03:27:31;;;;;;;;;;;;;;;;;;4965865;28;19921;-66
2023/09/03 03:29:56;;;;;;;;;;;;;;;;;;4961452;28;19976;-66
2023/09/03 03:32:21;;;;;;;;;;;;;;;;;;4964438;28;19926;-67
2023/09/03 03:34:47;;;;;;;;;;;;;;;;;;4967072;28;19921;-67
2023/09/03 03:37:12;;;;;;;;;;;;;;;;;;4949173;28;19922;-67
2023/09/03 03:39:37;;;;;;;;;;;;;;;;;;4968229;28;19936;-67
2023/09/03 03:42:05;;;;;;;;;;;;;;;;;;4948761;28;19928;-67
2023/09/03 03:44:31;;;;;;;;;;;;;;;;;;4967803;28;20020;-66
2023/09/03 03:46:59;;;;;;;;;;;;;;;;;;4961456;28;20009;-66
2023/09/03 03:49:24;;;;;;;;;;;;;;;;;;4966419;28;19921;-67
2023/09/03 03:51:50;;;;;;;;;;;;;;;;;;4978296;28;19996;-67
2023/09/03 03:54:15;;;;;;;;;;;;;;;;;;4946216;28;19922;-67
2023/09/03 03:56:40;;;;;;;;;;;;;;;;;;4946286;28;20483;-67
2023/09/03 03:59:05;;;;;;;;;;;;;;;;;;4966942;28;20007;-67
2023/09/03 04:01:33;;;;;;;;;;;;;;;;;;4982426;28;19929;-67
2023/09/03 04:03:59;;;;;;;;;;;;;;;;;;4968382;28;20456;-67
2023/09/03 04:06:24;;;;;;;;;;;;;;;;;;4967979;28;19952;-67
2023/09/03 04:08:52;;;;;;;;;;;;;;;;;;4946238;28;20284;-68
2023/09/03 04:11:20;;;;;;;;;;;;;;;;;;4982617;28;19926;-68
2023/09/03 04:13:48;;;;;;;;;;;;;;;;;;4943828;28;19918;-68
2023/09/03 04:16:16;;;;;;;;;;;;;;;;;;4982360;28;19960;-68
2023/09/03 04:18:41;;;;;;;;;;;;;;;;;;4981830;28;20036;-68
2023/09/03 04:21:10;;;;;;;;;;;;;;;;;;4968684;28;19933;-68
2023/09/03 04:23:35;;;;;;;;;;;;;;;;;;4966736;28;19917;-67
2023/09/03 04:26:00;;;;;;;;;;;;;;;;;;4946432;28;19917;-67
2023/09/03 04:28:28;;;;;;;;;;;;;;;;;;4964448;28;20007;-68
2023/09/03 04:30:54;;;;;;;;;;;;;;;;;;4965543;28;19930;-66
2023/09/03 04:33:22;;;;;;;;;;;;;;;;;;4982628;28;20510;-67
2023/09/03 04:35:47;;;;;;;;;;;;;;;;;;4966603;28;19949;-67
2023/09/03 04:38:12;;;;;;;;;;;;;;;;;;4966722;28;20986;-66
2023/09/03 04:40:37;;;;;;;;;;;;;;;;;;4982221;28;19925;-66
2023/09/03 04:43:03;;;;;;;;;;;;;;;;;;4966537;28;19928;-66
2023/09/03 04:45:28;;;;;;;;;;;;;;;;;;4966397;28;20525;-66
2023/09/03 04:47:53;;;;;;;;;;;;;;;;;;4962603;28;19922;-67
2023/09/03 04:50:20;;;;;;;;;;;;;;;;;;4967541;28;20017;-67
2023/09/03 04:52:48;;;;;;;;;;;;;;;;;;4961162;28;19918;-66
2023/09/03 04:55:13;;;;;;;;;;;;;;;;;;4966657;28;19933;-67
2023/09/03 04:57:38;;;;;;;;;;;;;;;;;;4966693;28;19922;-67
2023/09/03 05:00:04;;;;;;;;;;;;;;;;;;4966968;28;19928;-67
2023/09/03 05:02:30;;;;;;;;;;;;;;;;;;4966308;28;19922;-66
2023/09/03 05:04:55;;;;;;;;;;;;;;;;;;4964261;28;20337;-66
2023/09/03 05:07:20;;;;;;;;;;;;;;;;;;4965681;28;19937;-67
2023/09/03 05:09:45;;;;;;;;;;;;;;;;;;4964085;28;19967;-66
2023/09/03 05:12:11;;;;;;;;;;;;;;;;;;4982328;28;19937;-67
2023/09/03 05:14:36;;;;;;;;;;;;;;;;;;4946763;28;19979;-66
2023/09/03 05:17:04;;;;;;;;;;;;;;;;;;4966196;28;19933;-67
2023/09/03 05:19:29;;;;;;;;;;;;;;;;;;4959872;28;19932;-67
2023/09/03 05:21:57;;;;;;;;;;;;;;;;;;4947144;28;20415;-67
2023/09/03 05:24:22;;;;;;;;;;;;;;;;;;4966610;28;19928;-66
2023/09/03 05:26:49;;;;;;;;;;;;;;;;;;4958555;28;19922;-67
2023/09/03 05:29:15;;;;;;;;;;;;;;;;;;4979481;28;20008;-67
2023/09/03 05:31:40;;;;;;;;;;;;;;;;;;4965147;28;20284;-66
2023/09/03 05:34:06;;;;;;;;;;;;;;;;;;4945610;28;20581;-67
2023/09/03 05:36:31;;;;;;;;;;;;;;;;;;4964795;28;20009;-67
2023/09/03 05:38:57;;;;;;;;;;;;;;;;;;4946066;28;19921;-67
2023/09/03 05:41:23;;;;;;;;;;;;;;;;;;4965650;28;19922;-66
2023/09/03 05:43:48;;;;;;;;;;;;;;;;;;4965703;28;19918;-67
2023/09/03 05:46:14;;;;;;;;;;;;;;;;;;4964375;28;20392;-67
2023/09/03 05:48:39;;;;;;;;;;;;;;;;;;4979440;28;19957;-67
2023/09/03 05:51:08;;;;;;;;;;;;;;;;;;4946752;28;19922;-68
2023/09/03 05:53:33;;;;;;;;;;;;;;;;;;4965626;28;20372;-67
2023/09/03 05:55:58;;;;;;;;;;;;;;;;;;4965322;28;20412;-68
2023/09/03 05:58:24;;;;;;;;;;;;;;;;;;4967791;28;19918;-66
2023/09/03 06:00:50;;;;;;;;;;;;;;;;;;4977742;28;22155;-68
2023/09/03 06:03:18;;;;;;;;;;;;;;;;;;4963022;28;19953;-68
2023/09/03 06:05:44;;;;;;;;;;;;;;;;;;4944477;28;19949;-67
2023/09/03 06:08:09;;;;;;;;;;;;;;;;;;4966209;28;19950;-68
2023/09/03 06:10:37;;;;;;;;;;;;;;;;;;4959824;28;19922;-68
2023/09/03 06:13:02;;;;;;;;;;;;;;;;;;4964964;28;20564;-68
2023/09/03 06:15:28;;;;;;;;;;;;;;;;;;4943194;28;19972;-68
2023/09/03 06:17:57;;;;;;;;;;;;;;;;;;4964187;28;20036;-68
2023/09/03 06:20:22;;;;;;;;;;;;;;;;;;4963061;28;19926;-68
2023/09/03 06:22:47;;;;;;;;;;;;;;;;;;4964209;28;20913;-68
2023/09/03 06:25:13;;;;;;;;;;;;;;;;;;4943927;28;20556;-67
2023/09/03 06:27:38;;;;;;;;;;;;;;;;;;4979552;28;19925;-67
2023/09/03 06:30:04;;;;;;;;;;;;;;;;;;4979980;28;20479;-67
2023/09/03 06:32:29;;;;;;;;;;;;;;;;;;4962391;28;19922;-67
2023/09/03 06:34:54;;;;;;;;;;;;;;;;;;4944125;28;20492;-68
2023/09/03 06:37:20;;;;;;;;;;;;;;;;;;4963860;28;19918;-68
2023/09/03 06:39:46;;;;;;;;;;;;;;;;;;4974690;28;19926;-68
2023/09/03 06:42:11;;;;;;;;;;;;;;;;;;4943884;28;20664;-70
2023/09/03 06:44:37;;;;;;;;;;;;;;;;;;4980163;28;19922;-68
2023/09/03 06:47:02;;;;;;;;;;;;;;;;;;4943346;28;19918;-68
2023/09/03 06:49:28;;;;;;;;;;;;;;;;;;4979753;28;20043;-68
2023/09/03 06:51:53;;;;;;;;;;;;;;;;;;4960223;28;19930;-68
2023/09/03 06:54:18;;;;;;;;;;;;;;;;;;4945594;28;19921;-70
2023/09/03 06:56:44;;;;;;;;;;;;;;;;;;4941731;28;19922;-69
2023/09/03 06:59:09;;;;;;;;;;;;;;;;;;4959591;28;19922;-69
2023/09/03 07:01:34;;;;;;;;;;;;;;;;;;4963292;28;19928;-69
2023/09/03 07:04:00;;;;;;;;;;;;;;;;;;4963468;28;20001;-69
2023/09/03 07:06:25;;;;;;;;;;;;;;;;;;4979762;28;19994;-66
2023/09/03 07:08:53;;;;;;;;;;;;;;;;;;4964575;28;19961;-68
2023/09/03 07:11:18;;;;;;;;;;;;;;;;;;4947602;28;21708;-68
2023/09/03 07:13:44;;;;;;;;;;;;;;;;;;4967710;28;19925;-69
2023/09/03 07:16:09;;;;;;;;;;;;;;;;;;4966625;28;19929;-69
2023/09/03 07:18:35;;;;;;;;;;;;;;;;;;4945578;28;20444;-69
2023/09/03 07:21:00;;;;;;;;;;;;;;;;;;4944673;28;19930;-68
2023/09/03 07:23:25;;;;;;;;;;;;;;;;;;4943561;28;21103;-68
2023/09/03 07:25:51;;;;;;;;;;;;;;;;;;4948157;28;19919;-68
2023/09/03 07:28:16;;;;;;;;;;;;;;;;;;4942363;28;19922;-68
2023/09/03 07:30:42;;;;;;;;;;;;;;;;;;4948397;28;20431;-68
2023/09/03 07:33:07;;;;;;;;;;;;;;;;;;4947853;28;19922;-72
2023/09/03 07:35:32;;;;;;;;;;;;;;;;;;4947645;28;20027;-68
2023/09/03 07:37:58;;;;;;;;;;;;;;;;;;4943097;28;20285;-68
2023/09/03 07:40:27;;;;;;;;;;;;;;;;;;4948741;28;20301;-69
2023/09/03 07:42:52;;;;;;;;;;;;;;;;;;4946477;28;20021;-68
2023/09/03 07:45:18;;;;;;;;;;;;;;;;;;4947742;28;20270;-69
2023/09/03 07:47:43;;;;;;;;;;;;;;;;;;4943743;28;20381;-74
2023/09/03 07:50:08;;;;;;;;;;;;;;;;;;4932688;28;19922;-69
2023/09/03 07:52:36;;;;;;;;;;;;;;;;;;4947777;28;19918;-68
2023/09/03 07:55:02;;;;;;;;;;;;;;;;;;4945811;28;20346;-72
2023/09/03 07:57:27;;;;;;;;;;;;;;;;;;4963197;28;20000;-70
2023/09/03 07:59:53;;;;;;;;;;;;;;;;;;4942992;28;20069;-71
2023/09/03 08:02:21;;;;;;;;;;;;;;;;;;4962311;28;20404;-70
2023/09/03 08:04:47;;;;;;;;;;;;;;;;;;4947201;28;19918;-70
2023/09/03 08:07:13;;;;;;;;;;;;;;;;;;4948246;28;22185;-72
2023/09/03 08:09:38;;;;;;;;;;;;;;;;;;4943605;28;19918;-69
2023/09/03 08:12:04;;;;;;;;;;;;;;;;;;4948462;28;19928;-70
2023/09/03 08:14:29;;;;;;;;;;;;;;;;;;4943287;28;19925;-72
2023/09/03 08:16:54;;;;;;;;;;;;;;;;;;4927003;28;19922;-69
2023/09/03 08:19:22;;;;;;;;;;;;;;;;;;4942650;28;19918;-70
2023/09/03 08:21:47;;;;;;;;;;;;;;;;;;4960959;28;20835;-70
2023/09/03 08:24:13;;;;;;;;;;;;;;;;;;4961434;28;20016;-70
2023/09/03 08:26:38;;;;;;;;;;;;;;;;;;4943098;28;19918;-70
2023/09/03 08:29:06;;;;;;;;;;;;;;;;;;4961174;28;19918;-71
2023/09/03 08:31:31;;;;;;;;;;;;;;;;;;4963291;28;20968;-75
2023/09/03 08:33:57;;;;;;;;;;;;;;;;;;4961776;28;20003;-72
2023/09/03 08:36:22;;;;;;;;;;;;;;;;;;4947882;28;19990;-71
2023/09/03 08:38:47;;;;;;;;;;;;;;;;;;4947017;28;20281;-72
2023/09/03 08:41:13;;;;;;;;;;;;;;;;;;4948090;28;19926;-71
2023/09/03 08:43:38;;;;;;;;;;;;;;;;;;4942935;28;19929;-72
2023/09/03 08:46:03;;;;;;;;;;;;;;;;;;4946098;28;20005;-70
2023/09/03 08:48:29;;;;;;;;;;;;;;;;;;4945174;28;19921;-72
2023/09/03 08:50:54;;;;;;;;;;;;;;;;;;4943749;28;19926;-70
2023/09/03 08:53:20;;;;;;;;;;;;;;;;;;4960663;28;19929;-70
2023/09/03 08:55:45;;;;;;;;;;;;;;;;;;4946061;28;19918;-71
2023/09/03 08:58:15;;;;;;;;;;;;;;;;;;4940335;28;19929;-71
2023/09/03 09:00:40;;;;;;;;;;;;;;;;;;4946617;28;19922;-71
2023/09/03 09:03:06;;;;;;;;;;;;;;;;;;4945468;28;19941;-69
2023/09/03 09:05:31;;;;;;;;;;;;;;;;;;4961956;28;19918;-70
2023/09/03 09:07:56;;;;;;;;;;;;;;;;;;4945588;28;20273;-70
2023/09/03 09:10:22;;;;;;;;;;;;;;;;;;4947182;28;21380;-70
2023/09/03 09:12:47;;;;;;;;;;;;;;;;;;4927373;28;19926;-69
2023/09/03 09:15:12;;;;;;;;;;;;;;;;;;4959823;28;20722;-71
2023/09/03 09:17:38;;;;;;;;;;;;;;;;;;4942888;28;20474;-73
2023/09/03 09:20:03;;;;;;;;;;;;;;;;;;4960624;28;19934;-71
2023/09/03 09:22:28;;;;;;;;;;;;;;;;;;4945240;28;19981;-71
2023/09/03 09:24:54;;;;;;;;;;;;;;;;;;4946660;28;20685;-70
2023/09/03 09:27:19;;;;;;;;;;;;;;;;;;4960129;28;19922;-77
2023/09/03 09:29:44;;;;;;;;;;;;;;;;;;4943656;28;20690;-71
2023/09/03 09:32:12;;;;;;;;;;;;;;;;;;4959406;28;19917;-73
2023/09/03 09:34:37;;;;;;;;;;;;;;;;;;4946487;28;20298;-71
2023/09/03 09:37:02;;;;;;;;;;;;;;;;;;4947645;28;19922;-71
2023/09/03 09:39:28;;;;;;;;;;;;;;;;;;4945659;28;19929;-74
2023/09/03 09:41:53;;;;;;;;;;;;;;;;;;4946238;28;19958;-75
2023/09/03 09:47:35;;;;;;;;;;;;;;;;;;4944972;28;20412;-74
2023/09/03 09:50:04;;;;;;;;;;;;;;;;;;4945449;28;19922;-72
2023/09/03 09:52:29;;;;;;;;;;;;;;;;;;4940735;28;19965;-71
2023/09/03 09:54:54;;;;;;;;;;;;;;;;;;4944464;28;20020;-74
2023/09/03 09:57:20;;;;;;;;;;;;;;;;;;4943633;28;19926;-74
2023/09/03 09:59:45;;;;;;;;;;;;;;;;;;4945013;28;19918;-71
2023/09/03 10:02:12;;;;;;;;;;;;;;;;;;4931245;28;22189;-73
2023/09/03 10:04:37;;;;;;;;;;;;;;;;;;4945207;28;20021;-76
2023/09/03 10:07:02;;;;;;;;;;;;;;;;;;4944108;28;19922;-75
2023/09/03 10:12:18;;;;;;;;;;;;;;;;;;4947858;28;20002;-71
2023/09/03 10:14:44;;;;;;;;;;;;;;;;;;4945656;28;19932;-72
2023/09/03 10:17:11;;;;;;;;;;;;;;;;;;4950855;28;20579;-71
2023/09/03 10:19:37;;;;;;;;;;;;;;;;;;4980299;28;19945;-72
2023/09/03 10:22:02;;;;;;;;;;;;;;;;;;4964343;28;19922;-73
2023/09/03 10:24:28;;;;;;;;;;;;;;;;;;4943751;28;19913;-70
2023/09/03 10:30:09;;;;;;;;;;;;;;;;;;4963297;28;19937;-75
2023/09/03 10:32:35;;;;;;;;;;;;;;;;;;4963953;28;19918;-72
2023/09/03 10:35:00;;;;;;;;;;;;;;;;;;4965676;28;19996;-70
2023/09/03 10:37:25;;;;;;;;;;;;;;;;;;4979555;28;19929;-70
2023/09/03 10:39:51;;;;;;;;;;;;;;;;;;4977723;28;21814;-71
2023/09/03 10:42:16;;;;;;;;;;;;;;;;;;4945959;28;20557;-70
2023/09/03 10:44:45;;;;;;;;;;;;;;;;;;4983527;28;20024;-70
2023/09/03 10:47:13;;;;;;;;;;;;;;;;;;4966621;28;19929;-69
2023/09/03 10:49:39;;;;;;;;;;;;;;;;;;4968008;28;20037;-69
2023/09/03 10:52:07;;;;;;;;;;;;;;;;;;4966581;28;19998;-73
2023/09/03 10:54:32;;;;;;;;;;;;;;;;;;4982938;28;20288;-70
2023/09/03 10:56:58;;;;;;;;;;;;;;;;;;4968014;28;20657;-72
2023/09/03 10:59:23;;;;;;;;;;;;;;;;;;4949577;28;19928;-71
2023/09/03 11:01:48;;;;;;;;;;;;;;;;;;4968175;28;19922;-75
2023/09/03 11:04:14;;;;;;;;;;;;;;;;;;4950180;28;20389;-72
2023/09/03 11:06:39;;;;;;;;;;;;;;;;;;4966103;28;19917;-72
2023/09/03 11:09:05;;;;;;;;;;;;;;;;;;4961912;28;19921;-70
2023/09/03 11:11:30;;;;;;;;;;;;;;;;;;4969367;28;19972;-70
2023/09/03 11:13:55;;;;;;;;;;;;;;;;;;4952305;28;19976;-74
2023/09/03 11:16:21;;;;;;;;;;;;;;;;;;4962599;28;19964;-71
2023/09/03 11:18:46;;;;;;;;;;;;;;;;;;4967980;28;20905;-72
2023/09/03 11:21:11;;;;;;;;;;;;;;;;;;4982157;28;20096;-72
2023/09/03 11:23:36;;;;;;;;;;;;;;;;;;4948107;28;19921;-76
2023/09/03 11:26:03;;;;;;;;;;;;;;;;;;4946329;28;20005;-73
2023/09/03 11:28:47;;;;;;;;;;;;;;;;;;4981907;28;19917;-72
2023/09/03 11:31:13;;;;;;;;;;;;;;;;;;4977568;28;20000;-71
2023/09/03 11:33:38;;;;;;;;;;;;;;;;;;4967461;28;19921;-68
2023/09/03 11:36:04;;;;;;;;;;;;;;;;;;4967794;28;19945;-72
2023/09/03 11:38:29;;;;;;;;;;;;;;;;;;4967478;28;20300;-70
2023/09/03 11:40:58;;;;;;;;;;;;;;;;;;4947389;28;19949;-72
2023/09/03 11:43:23;;;;;;;;;;;;;;;;;;4982913;28;19932;-72
2023/09/03 11:45:49;;;;;;;;;;;;;;;;;;4964975;28;19921;-69
2023/09/03 11:48:14;;;;;;;;;;;;;;;;;;4967927;28;20656;-73
2023/09/03 11:50:45;;;;;;;;;;;;;;;;;;4979710;28;19972;-69
2023/09/03 11:53:10;;;;;;;;;;;;;;;;;;4967828;28;19922;-72
2023/09/03 11:55:36;;;;;;;;;;;;;;;;;;4965621;28;19944;-71
2023/09/03 11:58:04;;;;;;;;;;;;;;;;;;4965370;28;19922;-71
2023/09/03 12:00:32;;;;;;;;;;;;;;;;;;4965152;28;20417;-71
2023/09/03 12:02:58;;;;;;;;;;;;;;;;;;4968178;28;19922;-73
2023/09/03 12:05:23;;;;;;;;;;;;;;;;;;4982308;28;19918;-69
2023/09/03 12:07:49;;;;;;;;;;;;;;;;;;4983341;28;19953;-71
2023/09/03 12:10:14;;;;;;;;;;;;;;;;;;4982385;28;20036;-76
2023/09/03 12:15:26;;;;;;;;;;;;;;;;;;4965967;28;19922;-72
2023/09/03 12:17:51;;;;;;;;;;;;;;;;;;4967461;28;19932;-71
2023/09/03 12:20:19;;;;;;;;;;;;;;;;;;4946441;28;21795;-70
2023/09/03 12:22:46;;;;;;;;;;;;;;;;;;4967472;28;19918;-69
2023/09/03 12:25:11;;;;;;;;;;;;;;;;;;4965344;28;19929;-68
2023/09/03 12:27:36;;;;;;;;;;;;;;;;;;4965614;28;19987;-68
2023/09/03 12:30:05;;;;;;;;;;;;;;;;;;4980397;28;19922;-68
2023/09/03 12:32:30;;;;;;;;;;;;;;;;;;4979294;28;19928;-69
2023/09/03 12:34:57;;;;;;;;;;;;;;;;;;4981261;28;19922;-68
2023/09/03 12:37:23;;;;;;;;;;;;;;;;;;4945746;28;20385;-68
2023/09/03 12:39:48;;;;;;;;;;;;;;;;;;4964539;28;19926;-69
2023/09/03 12:42:13;;;;;;;;;;;;;;;;;;4942148;28;20005;-69
2023/09/03 12:44:39;;;;;;;;;;;;;;;;;;4981187;28;19929;-71
2023/09/03 12:47:06;;;;;;;;;;;;;;;;;;4981289;28;20009;-72
2023/09/03 12:49:31;;;;;;;;;;;;;;;;;;4981603;28;19996;-70
2023/09/03 12:52:00;;;;;;;;;;;;;;;;;;4965631;28;20051;-68
2023/09/03 12:54:27;;;;;;;;;;;;;;;;;;4943143;28;20955;-68
2023/09/03 12:56:56;;;;;;;;;;;;;;;;;;4964096;28;19918;-69
2023/09/03 12:59:21;;;;;;;;;;;;;;;;;;4966810;28;19921;-69
2023/09/03 13:01:46;;;;;;;;;;;;;;;;;;4966071;28;19925;-69
2023/09/03 13:04:12;;;;;;;;;;;;;;;;;;4943813;28;19922;-69
2023/09/03 13:06:40;;;;;;;;;;;;;;;;;;4981673;28;19918;-69
2023/09/03 13:09:07;;;;;;;;;;;;;;;;;;4964851;28;19918;-69
2023/09/03 13:11:36;;;;;;;;;;;;;;;;;;4980024;28;20517;-69
2023/09/03 13:14:02;;;;;;;;;;;;;;;;;;4942379;28;19921;-69
2023/09/03 13:16:27;;;;;;;;;;;;;;;;;;4980604;28;19928;-68
2023/09/03 13:18:52;;;;;;;;;;;;;;;;;;4961686;28;19922;-70
2023/09/03 13:21:18;;;;;;;;;;;;;;;;;;4966878;28;21882;-71
2023/09/03 13:23:46;;;;;;;;;;;;;;;;;;4945377;28;19968;-69
2023/09/03 13:26:11;;;;;;;;;;;;;;;;;;4964488;28;20358;-69
2023/09/03 13:28:36;;;;;;;;;;;;;;;;;;4965747;28;19922;-71
2023/09/03 13:31:02;;;;;;;;;;;;;;;;;;4958646;28;20841;-70
2023/09/03 13:33:27;;;;;;;;;;;;;;;;;;4965354;28;19968;-68
2023/09/03 13:35:53;;;;;;;;;;;;;;;;;;4966177;28;20124;-69
2023/09/03 13:38:18;;;;;;;;;;;;;;;;;;4981642;28;19929;-71
2023/09/03 13:40:43;;;;;;;;;;;;;;;;;;4945154;28;20403;-71
2023/09/03 13:43:09;;;;;;;;;;;;;;;;;;4945667;28;19929;-69
2023/09/03 13:45:34;;;;;;;;;;;;;;;;;;4943070;28;19934;-72
2023/09/03 13:47:59;;;;;;;;;;;;;;;;;;4947252;28;19917;-68
2023/09/03 13:50:30;;;;;;;;;;;;;;;;;;4963179;28;20040;-69
2023/09/03 13:52:56;;;;;;;;;;;;;;;;;;4965137;28;20636;-67
2023/09/03 13:55:21;;;;;;;;;;;;;;;;;;4965956;28;19917;-68
2023/09/03 13:57:47;;;;;;;;;;;;;;;;;;4965491;28;20048;-69
2023/09/03 14:00:12;;;;;;;;;;;;;;;;;;4965432;28;19937;-69
2023/09/03 14:02:43;;;;;;;;;;;;;;;;;;4979821;28;20965;-68
2023/09/03 14:05:09;;;;;;;;;;;;;;;;;;4965596;28;19922;-69
2023/09/03 14:07:34;;;;;;;;;;;;;;;;;;4966336;28;19964;-68
2023/09/03 14:09:59;;;;;;;;;;;;;;;;;;4946732;28;19922;-68
2023/09/03 14:12:25;;;;;;;;;;;;;;;;;;4958206;28;19924;-67
2023/09/03 14:14:50;;;;;;;;;;;;;;;;;;4958958;28;19922;-69
2023/09/03 14:17:18;;;;;;;;;;;;;;;;;;4962458;28;19929;-68
2023/09/03 14:19:45;;;;;;;;;;;;;;;;;;4963566;28;20400;-69
2023/09/03 14:22:10;;;;;;;;;;;;;;;;;;4978163;28;19948;-68
2023/09/03 14:24:35;;;;;;;;;;;;;;;;;;4944014;28;19941;-68
2023/09/03 14:27:01;;;;;;;;;;;;;;;;;;4945207;28;19933;-68
2023/09/03 14:29:26;;;;;;;;;;;;;;;;;;4965065;28;19968;-67
2023/09/03 14:31:52;;;;;;;;;;;;;;;;;;4943153;28;19922;-69
2023/09/03 14:34:17;;;;;;;;;;;;;;;;;;4944063;28;19929;-69
2023/09/03 14:36:43;;;;;;;;;;;;;;;;;;4981360;28;19992;-70
2023/09/03 14:39:08;;;;;;;;;;;;;;;;;;4964635;28;19956;-70
2023/09/03 14:41:33;;;;;;;;;;;;;;;;;;4965040;28;19985;-69
2023/09/03 14:43:59;;;;;;;;;;;;;;;;;;4962582;28;19929;-68
2023/09/03 14:46:25;;;;;;;;;;;;;;;;;;4961870;28;19925;-70
2023/09/03 14:48:50;;;;;;;;;;;;;;;;;;4946288;28;19918;-69
2023/09/03 14:51:15;;;;;;;;;;;;;;;;;;4981456;28;19922;-69
2023/09/03 14:53:41;;;;;;;;;;;;;;;;;;4981298;28;20396;-70
2023/09/03 14:56:06;;;;;;;;;;;;;;;;;;4980268;28;20004;-69
2023/09/03 14:58:32;;;;;;;;;;;;;;;;;;4964480;28;19922;-69
2023/09/03 15:00:57;;;;;;;;;;;;;;;;;;4963623;28;20048;-69
2023/09/03 15:03:23;;;;;;;;;;;;;;;;;;4981320;28;19922;-69
2023/09/03 15:05:48;;;;;;;;;;;;;;;;;;4964866;28;19918;-70
2023/09/03 15:08:14;;;;;;;;;;;;;;;;;;4946052;28;20048;-70
2023/09/03 15:10:39;;;;;;;;;;;;;;;;;;4965616;28;20377;-69
2023/09/03 15:13:05;;;;;;;;;;;;;;;;;;4944930;28;19921;-70
2023/09/03 15:15:33;;;;;;;;;;;;;;;;;;4962655;28;19925;-70
2023/09/03 15:17:58;;;;;;;;;;;;;;;;;;4977223;28;19957;-70
2023/09/03 15:20:26;;;;;;;;;;;;;;;;;;4964788;28;19929;-70
2023/09/03 15:22:52;;;;;;;;;;;;;;;;;;4980764;28;19918;-69
2023/09/03 15:25:17;;;;;;;;;;;;;;;;;;4964401;28;19922;-69
2023/09/03 15:27:43;;;;;;;;;;;;;;;;;;4943814;28;20204;-68
2023/09/03 15:30:08;;;;;;;;;;;;;;;;;;4980498;28;20040;-69
2023/09/03 15:32:33;;;;;;;;;;;;;;;;;;4948562;28;19922;-69
2023/09/03 15:35:03;;;;;;;;;;;;;;;;;;4968293;28;20416;-68
2023/09/03 15:37:28;;;;;;;;;;;;;;;;;;4968213;28;19917;-69
2023/09/03 15:39:53;;;;;;;;;;;;;;;;;;4966347;28;19937;-68
2023/09/03 15:42:19;;;;;;;;;;;;;;;;;;4983350;28;20753;-68
2023/09/03 15:44:46;;;;;;;;;;;;;;;;;;4944022;28;20925;-68
2023/09/03 15:47:12;;;;;;;;;;;;;;;;;;4966550;28;19922;-69
2023/09/03 15:49:37;;;;;;;;;;;;;;;;;;4984353;28;19957;-70
2023/09/03 15:52:05;;;;;;;;;;;;;;;;;;4966561;28;19922;-69
2023/09/03 15:54:30;;;;;;;;;;;;;;;;;;4948198;28;20056;-69
2023/09/03 15:56:55;;;;;;;;;;;;;;;;;;4967159;28;20407;-68
2023/09/03 15:59:23;;;;;;;;;;;;;;;;;;4968483;28;20012;-68
2023/09/03 16:01:49;;;;;;;;;;;;;;;;;;4964053;28;19956;-68
2023/09/03 16:04:17;;;;;;;;;;;;;;;;;;4965697;28;19918;-68
2023/09/03 16:06:45;;;;;;;;;;;;;;;;;;4981023;28;20838;-68
2023/09/03 16:09:10;;;;;;;;;;;;;;;;;;4949007;28;19922;-68
2023/09/03 16:11:36;;;;;;;;;;;;;;;;;;4982697;28;20496;-68
2023/09/03 16:14:01;;;;;;;;;;;;;;;;;;4967937;28;20480;-68
2023/09/03 16:16:26;;;;;;;;;;;;;;;;;;4966410;28;19925;-67
2023/09/03 16:18:54;;;;;;;;;;;;;;;;;;4981634;28;20063;-67
2023/09/03 16:21:21;;;;;;;;;;;;;;;;;;4953043;28;19930;-67
2023/09/03 16:23:47;;;;;;;;;;;;;;;;;;4947794;28;20045;-69
2023/09/03 16:26:14;;;;;;;;;;;;;;;;;;4982583;28;19922;-68
2023/09/03 16:28:40;;;;;;;;;;;;;;;;;;4981912;28;20452;-68
2023/09/03 16:31:05;;;;;;;;;;;;;;;;;;4966169;28;20008;-68
2023/09/03 16:33:30;;;;;;;;;;;;;;;;;;4966429;28;19921;-68
2023/09/03 16:35:56;;;;;;;;;;;;;;;;;;4966313;28;19922;-68
2023/09/03 16:38:21;;;;;;;;;;;;;;;;;;4965866;28;20424;-68
2023/09/03 16:40:47;;;;;;;;;;;;;;;;;;4967226;28;19925;-68
2023/09/03 16:43:12;;;;;;;;;;;;;;;;;;4981820;28;19922;-68
2023/09/03 16:45:37;;;;;;;;;;;;;;;;;;4965581;28;21773;-69
2023/09/03 16:48:03;;;;;;;;;;;;;;;;;;4966703;28;19922;-68